createdAt,value
2022-10-12T00:01:47.354Z,8.40
2022-10-12T00:04:13.677Z,10.27
2022-10-12T00:06:40.001Z,11.17
2022-10-12T00:09:06.436Z,12.20
2022-10-12T00:11:32.883Z,10.90
2022-10-12T00:13:59.469Z,10.33
2022-10-12T00:16:30.852Z,10.23
2022-10-12T00:18:58.248Z,11.20
2022-10-12T00:21:26.294Z,10.83
2022-10-12T00:23:55.643Z,10.37
2022-10-12T00:26:23.581Z,11.13
2022-10-12T00:28:58.590Z,11.33
2022-10-12T00:31:26.237Z,11.70
2022-10-12T00:33:53.044Z,11.03
2022-10-12T00:36:19.332Z,9.90
2022-10-12T00:38:46.794Z,10.27
2022-10-12T00:41:15.069Z,11.17
2022-10-12T00:43:42.956Z,10.87
2022-10-12T00:46:18.974Z,11.13
2022-10-12T00:48:49.899Z,11.87
2022-10-12T00:51:19.387Z,10.33
2022-10-12T00:53:52.396Z,11.43
2022-10-12T00:56:24.046Z,11.13
2022-10-12T00:58:51.711Z,10.90
2022-10-12T01:01:18.782Z,9.83
2022-10-12T01:03:45.557Z,9.37
2022-10-12T01:06:12.050Z,10.83
2022-10-12T01:08:38.682Z,10.03
2022-10-12T01:11:05.328Z,9.40
2022-10-12T01:13:32.025Z,9.27
2022-10-12T01:16:04.023Z,10.43
2022-10-12T01:18:40.261Z,11.47
2022-10-12T01:21:23.535Z,10.80
2022-10-12T01:24:15.025Z,10.80
2022-10-12T01:27:00.216Z,11.10
2022-10-12T01:29:30.067Z,12.30
2022-10-12T01:32:03.804Z,12.33
2022-10-12T01:34:45.917Z,12.43
2022-10-12T01:37:22.967Z,12.80
2022-10-12T01:39:55.949Z,13.20
2022-10-12T01:42:37.147Z,11.17
2022-10-12T01:45:10.797Z,11.67
2022-10-12T01:47:39.584Z,11.90
2022-10-12T01:50:10.771Z,12.30
2022-10-12T01:53:18.114Z,13.20
2022-10-12T01:56:04.317Z,11.27
2022-10-12T01:58:44.909Z,13.60
2022-10-12T02:01:38.578Z,12.93
2022-10-12T02:04:16.143Z,12.10
2022-10-12T02:06:52.565Z,12.77
2022-10-12T02:09:25.237Z,12.40
2022-10-12T02:11:55.225Z,12.00
2022-10-12T02:14:25.796Z,11.87
2022-10-12T02:16:59.476Z,11.10
2022-10-12T02:19:30.201Z,10.40
2022-10-12T02:22:01.625Z,10.83
2022-10-12T02:24:30.383Z,10.57
2022-10-12T02:26:57.367Z,12.80
2022-10-12T02:29:30.491Z,11.67
2022-10-12T02:32:07.272Z,12.70
2022-10-12T02:34:41.475Z,12.03
2022-10-12T02:37:32.020Z,12.50
2022-10-12T02:40:06.885Z,13.03
2022-10-12T02:43:08.304Z,12.07
2022-10-12T02:45:26.531Z,12.57
2022-10-12T02:47:56.239Z,11.57
2022-10-12T02:50:24.888Z,13.67
2022-10-12T02:52:52.755Z,11.30
2022-10-12T02:55:19.933Z,14.73
2022-10-12T02:57:46.289Z,14.07
2022-10-12T03:00:13.255Z,14.10
2022-10-12T03:02:39.562Z,14.53
2022-10-12T03:05:06.316Z,13.63
2022-10-12T03:07:32.633Z,13.17
2022-10-12T03:09:58.933Z,13.17
2022-10-12T03:12:25.275Z,11.03
2022-10-12T03:14:51.585Z,13.63
2022-10-12T03:17:17.889Z,12.90
2022-10-12T03:19:44.236Z,12.37
2022-10-12T03:22:10.592Z,11.70
2022-10-12T03:24:36.921Z,12.87
2022-10-12T03:27:03.295Z,12.93
2022-10-12T03:29:29.627Z,12.37
2022-10-12T03:31:55.946Z,11.03
2022-10-12T03:34:22.497Z,12.37
2022-10-12T03:36:48.792Z,13.00
2022-10-12T03:39:15.109Z,12.70
2022-10-12T03:41:41.420Z,11.33
2022-10-12T03:44:07.734Z,13.27
2022-10-12T03:46:34.066Z,13.00
2022-10-12T03:49:00.362Z,13.30
2022-10-12T03:51:27.376Z,12.43
2022-10-12T03:53:53.680Z,12.50
2022-10-12T03:56:19.999Z,11.77
2022-10-12T03:58:46.347Z,12.43
2022-10-12T04:01:12.687Z,12.63
2022-10-12T04:03:39.042Z,13.40
2022-10-12T04:06:05.600Z,10.80
2022-10-12T04:08:31.952Z,12.47
2022-10-12T04:10:58.271Z,12.83
2022-10-12T04:13:24.725Z,12.13
2022-10-12T04:15:51.101Z,12.17
2022-10-12T04:18:17.523Z,12.03
2022-10-12T04:20:47.453Z,12.97
2022-10-12T04:23:13.764Z,11.97
2022-10-12T04:25:40.069Z,12.50
2022-10-12T04:28:06.373Z,13.80
2022-10-12T04:30:33.618Z,11.63
2022-10-12T04:32:59.998Z,12.40
2022-10-12T04:35:26.513Z,12.03
2022-10-12T04:37:53.119Z,12.40
2022-10-12T04:40:19.471Z,13.17
2022-10-12T04:42:45.766Z,12.07
2022-10-12T04:45:12.173Z,12.40
2022-10-12T04:47:38.905Z,11.57
2022-10-12T04:50:06.319Z,12.00
2022-10-12T04:52:32.667Z,11.20
2022-10-12T04:54:59.003Z,12.17
2022-10-12T04:57:25.331Z,11.53
2022-10-12T04:59:51.627Z,12.03
2022-10-12T05:02:17.940Z,13.27
2022-10-12T05:04:44.300Z,12.90
2022-10-12T05:07:10.620Z,12.60
2022-10-12T05:09:36.923Z,11.17
2022-10-12T05:12:03.285Z,11.97
2022-10-12T05:14:33.587Z,11.70
2022-10-12T05:17:03.065Z,11.00
2022-10-12T05:19:29.428Z,11.50
2022-10-12T05:21:55.805Z,12.00
2022-10-12T05:24:22.109Z,12.07
2022-10-12T05:26:48.500Z,11.93
2022-10-12T05:29:14.844Z,12.70
2022-10-12T05:31:41.220Z,11.73
2022-10-12T05:34:07.564Z,10.73
2022-10-12T05:36:33.873Z,12.20
2022-10-12T05:39:00.166Z,12.70
2022-10-12T05:41:26.473Z,12.10
2022-10-12T05:43:53.547Z,13.10
2022-10-12T05:46:19.893Z,11.80
2022-10-12T05:48:46.316Z,10.83
2022-10-12T05:51:12.628Z,11.23
2022-10-12T05:53:39.019Z,11.40
2022-10-12T05:56:05.766Z,10.60
2022-10-12T05:58:32.174Z,12.40
2022-10-12T06:01:12.113Z,12.23
2022-10-12T06:03:42.987Z,11.40
2022-10-12T06:06:09.526Z,10.93
2022-10-12T06:08:36.060Z,10.37
2022-10-12T06:11:02.712Z,11.43
2022-10-12T06:13:29.200Z,12.17
2022-10-12T06:15:55.569Z,10.77
2022-10-12T06:18:22.032Z,11.07
2022-10-12T06:20:49.669Z,11.30
2022-10-12T06:23:16.157Z,11.53
2022-10-12T06:25:42.532Z,11.33
2022-10-12T06:28:08.957Z,10.83
2022-10-12T06:30:35.252Z,11.40
2022-10-12T06:33:01.648Z,11.80
2022-10-12T06:35:27.957Z,11.53
2022-10-12T06:37:54.287Z,13.60
2022-10-12T06:40:20.998Z,13.17
2022-10-12T06:42:49.327Z,12.93
2022-10-12T06:45:16.247Z,12.97
2022-10-12T06:47:43.008Z,13.20
2022-10-12T06:50:09.895Z,13.93
2022-10-12T06:52:36.720Z,12.67
2022-10-12T06:55:04.778Z,12.93
2022-10-12T06:57:31.357Z,11.60
2022-10-12T06:59:57.716Z,12.10
2022-10-12T07:02:24.036Z,13.70
2022-10-12T07:04:51.523Z,15.00
2022-10-12T07:07:18.744Z,14.77
2022-10-12T07:09:45.165Z,13.63
2022-10-12T07:12:11.551Z,16.30
2022-10-12T07:14:37.917Z,15.30
2022-10-12T07:17:04.267Z,14.87
2022-10-12T07:19:30.580Z,15.53
2022-10-12T07:21:56.890Z,16.33
2022-10-12T07:24:23.224Z,15.50
2022-10-12T07:26:50.977Z,14.80
2022-10-12T07:29:17.277Z,16.20
2022-10-12T07:31:46.417Z,15.13
2022-10-12T07:34:14.764Z,16.10
2022-10-12T07:36:58.530Z,16.87
2022-10-12T07:39:25.798Z,15.83
2022-10-12T07:41:52.734Z,15.43
2022-10-12T07:44:20.045Z,16.13
2022-10-12T07:46:46.688Z,16.27
2022-10-12T07:49:13.666Z,17.93
2022-10-12T07:51:40.413Z,17.07
2022-10-12T07:54:07.089Z,16.50
2022-10-12T07:56:34.361Z,15.97
2022-10-12T07:59:01.161Z,14.70
2022-10-12T08:01:29.996Z,15.33
2022-10-12T08:04:01.146Z,16.63
2022-10-12T08:06:30.928Z,15.40
2022-10-12T08:08:58.970Z,15.37
2022-10-12T08:11:25.678Z,15.73
2022-10-12T08:13:52.042Z,16.10
2022-10-12T08:16:20.564Z,15.03
2022-10-12T08:18:47.156Z,14.77
2022-10-12T08:21:15.297Z,15.80
2022-10-12T08:23:41.865Z,15.83
2022-10-12T08:26:08.195Z,13.20
2022-10-12T08:28:35.792Z,14.37
2022-10-12T08:31:06.652Z,13.67
2022-10-12T08:33:32.948Z,13.90
2022-10-12T08:36:03.135Z,14.00
2022-10-12T08:38:29.567Z,11.33
2022-10-12T08:41:02.152Z,10.87
2022-10-12T08:43:46.589Z,10.80
2022-10-12T08:46:13.021Z,10.20
2022-10-12T08:48:56.469Z,10.90
2022-10-12T08:51:27.336Z,11.73
2022-10-12T08:53:59.545Z,12.17
2022-10-12T08:56:26.275Z,9.73
2022-10-12T08:58:53.660Z,9.13
2022-10-12T09:01:28.466Z,8.67
2022-10-12T09:04:22.493Z,8.10
2022-10-12T09:06:48.808Z,8.20
2022-10-12T09:09:32.925Z,7.77
2022-10-12T09:12:31.229Z,8.90
2022-10-12T09:15:02.537Z,7.40
2022-10-12T09:17:47.601Z,7.00
2022-10-12T09:20:32.645Z,7.67
2022-10-12T09:23:02.205Z,7.17
2022-10-12T09:25:29.005Z,5.90
2022-10-12T09:28:06.073Z,5.90
2022-10-12T09:30:39.728Z,6.50
2022-10-12T09:33:32.484Z,5.97
2022-10-12T09:35:59.143Z,4.87
2022-10-12T09:38:25.541Z,5.77
2022-10-12T09:40:52.069Z,6.30
2022-10-12T09:43:18.407Z,6.07
2022-10-12T09:45:45.471Z,7.53
2022-10-12T09:48:16.325Z,7.00
2022-10-12T09:50:50.828Z,7.30
2022-10-12T09:53:26.211Z,8.37
2022-10-12T09:56:01.095Z,9.20
2022-10-12T09:58:28.980Z,8.50
2022-10-12T10:01:19.463Z,8.73
2022-10-12T10:03:48.758Z,9.00
2022-10-12T10:06:15.499Z,11.30
2022-10-12T10:08:43.296Z,10.37
2022-10-12T10:11:21.422Z,8.27
2022-10-12T10:13:51.978Z,8.30
2022-10-12T10:16:20.081Z,7.80
2022-10-12T10:18:49.464Z,9.10
2022-10-12T10:21:25.461Z,7.73
2022-10-12T10:23:56.747Z,6.90
2022-10-12T10:26:24.384Z,5.80
2022-10-12T10:28:56.478Z,6.00
2022-10-12T10:31:27.629Z,5.90
2022-10-12T10:34:15.891Z,5.93
2022-10-12T10:36:49.125Z,4.33
2022-10-12T10:39:20.583Z,4.23
2022-10-12T10:41:47.760Z,4.03
2022-10-12T10:44:25.409Z,3.77
2022-10-12T10:46:53.638Z,3.93
2022-10-12T10:49:36.587Z,4.30
2022-10-12T10:52:04.688Z,4.10
2022-10-12T10:54:34.274Z,3.97
2022-10-12T10:57:21.400Z,3.50
2022-10-12T11:00:37.468Z,3.10
2022-10-12T11:03:24.879Z,3.43
2022-10-12T11:05:57.991Z,3.30
2022-10-12T11:08:30.367Z,2.70
2022-10-12T11:11:03.676Z,3.10
2022-10-12T11:13:55.335Z,2.53
2022-10-12T11:16:37.220Z,2.60
2022-10-12T11:19:15.043Z,2.97
2022-10-12T11:21:52.726Z,2.50
2022-10-12T11:24:26.583Z,2.73
2022-10-12T11:26:55.922Z,2.67
2022-10-12T11:29:22.497Z,2.03
2022-10-12T11:32:13.077Z,2.30
2022-10-12T11:34:49.539Z,2.37
2022-10-12T11:37:20.050Z,2.50
2022-10-12T11:39:50.051Z,2.97
2022-10-12T11:42:23.671Z,2.87
2022-10-12T11:44:50.197Z,3.20
2022-10-12T11:47:20.662Z,2.47
2022-10-12T11:49:53.485Z,1.83
2022-10-12T11:52:22.074Z,3.30
2022-10-12T11:54:54.635Z,2.90
2022-10-12T11:57:28.808Z,2.30
2022-10-12T12:00:06.786Z,1.63
2022-10-12T12:02:43.783Z,2.10
2022-10-12T12:05:16.835Z,2.10
2022-10-12T12:07:50.147Z,1.87
2022-10-12T12:10:31.125Z,1.87
2022-10-12T12:13:18.100Z,2.33
2022-10-12T12:15:47.177Z,1.90
2022-10-12T12:18:13.513Z,2.13
2022-10-12T12:20:43.103Z,2.40
2022-10-12T12:23:26.270Z,2.67
2022-10-12T12:26:16.806Z,2.20
2022-10-12T12:28:46.689Z,2.10
2022-10-12T12:31:15.839Z,2.77
2022-10-12T12:33:45.209Z,2.63
2022-10-12T12:36:29.428Z,2.10
2022-10-12T12:38:56.305Z,2.60
2022-10-12T12:41:28.512Z,2.03
2022-10-12T12:43:59.046Z,1.80
2022-10-12T12:46:47.012Z,1.90
2022-10-12T12:49:47.628Z,2.23
2022-10-12T12:52:21.551Z,1.67
2022-10-12T12:54:55.326Z,2.63
2022-10-12T12:57:58.608Z,2.10
2022-10-12T13:00:25.982Z,2.30
2022-10-12T13:03:02.835Z,2.10
2022-10-12T13:05:50.367Z,1.97
2022-10-12T13:08:48.800Z,2.20
2022-10-12T13:11:33.846Z,2.33
2022-10-12T13:14:18.847Z,2.03
2022-10-12T13:20:15.152Z,2.00
2022-10-12T13:22:42.038Z,2.30
2022-10-12T13:25:12.866Z,2.73
2022-10-12T13:27:45.432Z,2.30
2022-10-12T13:30:11.890Z,2.70
2022-10-12T13:32:43.932Z,1.90
2022-10-12T13:35:14.385Z,2.40
2022-10-12T13:37:40.774Z,2.83
2022-10-12T13:40:27.582Z,2.97
2022-10-12T13:42:53.914Z,3.17
2022-10-12T13:45:20.281Z,2.10
2022-10-12T13:47:46.613Z,2.30
2022-10-12T13:50:18.706Z,2.30
2022-10-12T13:52:53.548Z,2.83
2022-10-12T13:55:26.386Z,3.73
2022-10-12T13:57:52.682Z,3.17
2022-10-12T14:00:20.597Z,2.30
2022-10-12T14:03:13.335Z,3.17
2022-10-12T14:05:44.405Z,2.87
2022-10-12T14:08:15.731Z,3.00
2022-10-12T14:10:44.447Z,3.13
2022-10-12T14:13:15.411Z,3.30
2022-10-12T14:15:42.599Z,2.87
2022-10-12T14:18:31.000Z,2.93
2022-10-12T14:21:27.792Z,3.03
2022-10-12T14:23:55.813Z,3.10
2022-10-12T14:26:25.111Z,3.10
2022-10-12T14:28:51.969Z,3.10
2022-10-12T14:31:18.684Z,2.67
2022-10-12T14:33:45.003Z,3.13
2022-10-12T14:36:20.389Z,2.87
2022-10-12T14:38:47.504Z,2.37
2022-10-12T14:41:48.916Z,2.47
2022-10-12T14:44:17.859Z,3.43
2022-10-12T14:46:54.301Z,3.30
2022-10-12T14:49:22.540Z,2.57
2022-10-12T14:51:50.032Z,3.00
2022-10-12T14:54:16.436Z,3.33
2022-10-12T14:56:42.848Z,3.27
2022-10-12T14:59:09.198Z,3.67
2022-10-12T15:01:40.823Z,3.83
2022-10-12T15:04:11.795Z,3.50
2022-10-12T15:06:38.302Z,4.20
2022-10-12T15:09:04.654Z,3.33
2022-10-12T15:11:30.943Z,4.07
2022-10-12T15:13:57.337Z,3.50
2022-10-12T15:16:27.007Z,4.07
2022-10-12T15:18:53.831Z,5.27
2022-10-12T15:21:20.520Z,3.83
2022-10-12T15:23:46.993Z,4.57
2022-10-12T15:26:14.292Z,5.47
2022-10-12T15:28:40.779Z,4.70
2022-10-12T15:31:22.530Z,4.20
2022-10-12T15:33:48.878Z,4.73
2022-10-12T15:36:15.162Z,4.60
2022-10-12T15:38:41.535Z,4.50
2022-10-12T15:41:17.075Z,4.37
2022-10-12T15:43:43.412Z,4.30
2022-10-12T15:46:11.235Z,4.50
2022-10-12T15:48:39.494Z,4.17
2022-10-12T15:51:15.759Z,4.83
2022-10-12T15:53:42.107Z,4.67
2022-10-12T15:56:13.162Z,4.30
2022-10-12T15:58:39.518Z,3.90
2022-10-12T16:01:06.272Z,3.30
2022-10-12T16:03:32.759Z,4.13
2022-10-12T16:05:59.383Z,5.00
2022-10-12T16:08:25.645Z,4.30
2022-10-12T16:10:52.267Z,5.10
2022-10-12T16:13:18.644Z,5.10
2022-10-12T16:15:45.159Z,4.10
2022-10-12T16:18:11.462Z,4.77
2022-10-12T16:20:39.189Z,4.73
2022-10-12T16:23:07.997Z,4.73
2022-10-12T16:25:34.939Z,5.30
2022-10-12T16:28:01.380Z,4.43
2022-10-12T16:30:27.822Z,4.33
2022-10-12T16:32:54.218Z,3.77
2022-10-12T16:35:20.703Z,3.63
2022-10-12T16:37:47.078Z,5.23
2022-10-12T16:40:14.012Z,4.60
2022-10-12T16:42:40.321Z,4.63
2022-10-12T16:45:07.255Z,4.47
2022-10-12T16:47:35.848Z,5.10
2022-10-12T16:50:06.099Z,5.30
2022-10-12T16:52:32.671Z,5.10
2022-10-12T16:54:59.023Z,4.30
2022-10-12T16:57:25.271Z,4.13
2022-10-12T16:59:51.652Z,4.27
2022-10-12T17:02:19.066Z,4.93
2022-10-12T17:04:46.840Z,4.73
2022-10-12T17:07:13.721Z,4.60
2022-10-12T17:09:39.991Z,5.37
2022-10-12T17:12:06.613Z,4.70
2022-10-12T17:14:32.966Z,4.43
2022-10-12T17:16:59.277Z,5.57
2022-10-12T17:19:25.533Z,5.53
2022-10-12T17:21:52.994Z,6.83
2022-10-12T17:24:21.113Z,7.30
2022-10-12T17:26:47.566Z,6.30
2022-10-12T17:29:16.811Z,6.87
2022-10-12T17:31:43.207Z,6.30
2022-10-12T17:34:22.897Z,5.17
2022-10-12T17:36:50.191Z,4.20
2022-10-12T17:39:17.126Z,5.37
2022-10-12T17:41:43.616Z,4.33
2022-10-12T17:44:11.251Z,4.90
2022-10-12T17:46:41.041Z,4.63
2022-10-12T17:49:10.986Z,4.77
2022-10-12T17:51:37.293Z,5.43
2022-10-12T17:54:03.657Z,5.53
2022-10-12T17:56:30.000Z,5.70
2022-10-12T17:58:58.730Z,6.23
2022-10-12T18:01:25.686Z,6.70
2022-10-12T18:03:55.161Z,5.40
2022-10-12T18:06:23.590Z,5.97
2022-10-12T18:08:50.805Z,5.97
2022-10-12T18:11:19.369Z,6.63
2022-10-12T18:13:51.140Z,5.93
2022-10-12T18:16:20.313Z,6.03
2022-10-12T18:18:50.597Z,5.93
2022-10-12T18:21:17.403Z,5.30
2022-10-12T18:23:44.105Z,6.30
2022-10-12T18:26:12.673Z,6.77
2022-10-12T18:28:39.525Z,6.73
2022-10-12T18:31:06.611Z,5.77
2022-10-12T18:33:33.712Z,6.47
2022-10-12T18:36:07.063Z,6.60
2022-10-12T18:38:33.880Z,6.73
2022-10-12T18:41:05.191Z,6.53
2022-10-12T18:43:31.875Z,7.37
2022-10-12T18:45:58.211Z,6.40
2022-10-12T18:48:24.630Z,6.70
2022-10-12T18:50:52.453Z,5.93
2022-10-12T18:53:19.921Z,6.07
2022-10-12T18:55:46.246Z,6.40
2022-10-12T18:58:12.622Z,5.80
2022-10-12T19:00:40.365Z,7.97
2022-10-12T19:03:06.639Z,13.37
2022-10-12T19:05:33.081Z,15.10
2022-10-12T19:07:59.412Z,15.90
2022-10-12T19:10:25.670Z,14.53
2022-10-12T19:12:51.917Z,14.13
2022-10-12T19:15:18.242Z,13.23
2022-10-12T19:17:44.553Z,11.60
2022-10-12T19:20:11.154Z,10.23
2022-10-12T19:22:37.416Z,9.43
2022-10-12T19:25:04.186Z,8.67
2022-10-12T19:27:30.561Z,9.27
2022-10-12T19:29:56.893Z,9.20
2022-10-12T19:32:23.206Z,9.33
2022-10-12T19:34:52.598Z,9.20
2022-10-12T19:37:18.977Z,9.90
2022-10-12T19:39:46.947Z,9.40
2022-10-12T19:42:13.273Z,9.50
2022-10-12T19:44:39.585Z,8.07
2022-10-12T19:47:06.002Z,8.77
2022-10-12T19:49:36.583Z,8.57
2022-10-12T19:52:03.690Z,9.03
2022-10-12T19:54:34.073Z,9.33
2022-10-12T19:57:02.299Z,10.30
2022-10-12T19:59:28.644Z,12.17
2022-10-12T20:01:54.964Z,12.13
2022-10-12T20:04:21.382Z,10.53
2022-10-12T20:06:47.722Z,10.30
2022-10-12T20:09:14.149Z,10.57
2022-10-12T20:11:40.617Z,10.37
2022-10-12T20:14:07.476Z,10.80
2022-10-12T20:16:35.207Z,11.90
2022-10-12T20:19:02.724Z,10.17
2022-10-12T20:21:29.095Z,10.57
2022-10-12T20:23:55.493Z,10.17
2022-10-12T20:26:24.865Z,10.70
2022-10-12T20:28:52.763Z,10.60
2022-10-12T20:31:22.877Z,10.07
2022-10-12T20:33:50.004Z,10.97
2022-10-12T20:36:23.846Z,11.40
2022-10-12T20:38:51.308Z,11.57
2022-10-12T20:41:17.782Z,10.67
2022-10-12T20:43:44.646Z,10.97
2022-10-12T20:46:15.221Z,11.00
2022-10-12T20:48:44.153Z,11.13
2022-10-12T20:51:18.988Z,12.13
2022-10-12T20:53:45.344Z,12.53
2022-10-12T20:56:11.679Z,12.20
2022-10-12T20:58:38.132Z,12.50
2022-10-12T21:01:11.090Z,12.60
2022-10-12T21:03:37.456Z,13.63
2022-10-12T21:06:07.020Z,12.13
2022-10-12T21:08:33.807Z,12.37
2022-10-12T21:11:00.200Z,13.83
2022-10-12T21:13:30.553Z,14.23
2022-10-12T21:15:57.020Z,13.83
2022-10-12T21:18:23.374Z,14.73
2022-10-12T21:21:05.154Z,14.33
2022-10-12T21:23:31.541Z,14.60
2022-10-12T21:25:57.871Z,14.03
2022-10-12T21:28:24.279Z,15.83
2022-10-12T21:30:50.940Z,14.77
2022-10-12T21:33:17.598Z,15.27
2022-10-12T21:35:43.897Z,15.00
2022-10-12T21:38:10.276Z,15.50
2022-10-12T21:40:36.791Z,15.93
2022-10-12T21:43:03.176Z,16.27
2022-10-12T21:45:29.492Z,15.70
2022-10-12T21:47:55.820Z,18.07
2022-10-12T21:50:22.232Z,15.00
2022-10-12T21:52:50.149Z,12.67
2022-10-12T21:55:16.798Z,13.43
2022-10-12T21:57:43.490Z,12.80
2022-10-12T22:00:10.454Z,12.77
2022-10-12T22:02:39.658Z,13.97
2022-10-12T22:05:06.212Z,16.43
2022-10-12T22:07:32.598Z,16.37
2022-10-12T22:09:58.922Z,15.67
2022-10-12T22:12:25.256Z,16.43
2022-10-12T22:14:51.581Z,13.97
2022-10-12T22:17:20.753Z,14.93
2022-10-12T22:19:47.080Z,16.37
2022-10-12T22:22:13.402Z,16.73
2022-10-12T22:24:39.700Z,15.03
2022-10-12T22:27:06.012Z,15.50
2022-10-12T22:29:32.442Z,17.40
2022-10-12T22:31:59.109Z,14.13
2022-10-12T22:34:25.486Z,14.23
2022-10-12T22:36:51.901Z,14.60
2022-10-12T22:39:23.701Z,15.37
2022-10-12T22:41:50.029Z,15.27
2022-10-12T22:44:16.361Z,13.87
2022-10-12T22:46:42.770Z,13.97
2022-10-12T22:49:09.019Z,15.50
2022-10-12T22:51:39.037Z,16.50
2022-10-12T22:54:06.026Z,13.87
2022-10-12T22:56:32.820Z,14.00
2022-10-12T22:59:01.785Z,15.60
2022-10-12T23:01:28.751Z,16.33
2022-10-12T23:03:55.360Z,15.83
2022-10-12T23:06:23.180Z,15.20
2022-10-12T23:08:49.528Z,15.07
2022-10-12T23:11:20.499Z,15.33
2022-10-12T23:13:47.996Z,15.73
2022-10-12T23:16:34.610Z,15.80
2022-10-12T23:19:04.229Z,15.70
2022-10-12T23:21:32.922Z,15.50
2022-10-12T23:24:00.621Z,15.07
2022-10-12T23:26:28.465Z,15.67
2022-10-12T23:28:55.063Z,16.80
2022-10-12T23:31:24.168Z,15.40
2022-10-12T23:34:00.315Z,17.60
2022-10-12T23:36:27.463Z,16.50
2022-10-12T23:38:54.420Z,15.97
2022-10-12T23:41:21.178Z,15.43
2022-10-12T23:43:47.537Z,16.50
2022-10-12T23:46:13.875Z,15.20
2022-10-12T23:48:40.677Z,16.03
2022-10-12T23:51:07.904Z,14.30
2022-10-12T23:53:35.115Z,15.00
2022-10-12T23:56:01.445Z,15.23
2022-10-12T23:58:27.750Z,14.63
